Glasgow, Virginia
Current Conditions -  °F | °C
As of 5:54 PM on Thursday 18 Dec 2014 (Local Time) from KLYH Reporting Station
Overcast Overcast  
Wind Chill: 34°   Ceiling: 10000
Heat Index: 38°   Visibility: 10mi
Dew Point: 24°   Wind: 5mph
Humidity: 57%   Direction: 220°SW
Pressure: 30.09"   Gusts: NA
Location:  37.63°N, 79.45°W
Report Text: KLYH 182254Z 22004KT 10SM OVC100 03/M04 A3009 RMK AO2 SLP197 T00331044
Loading
Personal Weather Stations






























Interactive Weather Map New forecast layout! Learn more

10-Day Weather Forecast

Advertisements
Track Severe Weather on mobile